Time;durP1;ratioP1;P1;durP2;ratioP2;P2;SDS_P1;SDS_P2;PMS_P1;PMS_P2;Temp;Humidity;BMP_temperature;BMP_pressure;BME280_temperature;BME280_humidity;BME280_pressure;Samples;Min_cycle;Max_cycle;Signal;HPM_P1;HPM_P2
2022/05/05 00:02:10;;;;;;;5.53;4.72;;;10.50;99.90;;;;;;5075812;28;20441;-92
2022/05/05 00:08:03;;;;;;;5.25;4.32;;;10.40;99.90;;;;;;5076549;28;20377;-92
2022/05/05 00:15:58;;;;;;;5.03;4.15;;;10.40;99.90;;;;;;5093341;28;20078;-92
2022/05/05 00:18:24;;;;;;;5.47;3.85;;;10.40;99.90;;;;;;5075162;28;20020;-91
2022/05/05 00:20:50;;;;;;;4.65;4.00;;;10.30;99.90;;;;;;5074897;28;20053;-91
2022/05/05 00:23:15;;;;;;;5.40;4.35;;;10.30;99.90;;;;;;5093241;28;20044;-91
2022/05/05 00:25:41;;;;;;;5.47;4.30;;;10.30;99.90;;;;;;5075019;28;20024;-91
2022/05/05 00:28:07;;;;;;;4.80;3.95;;;10.30;99.90;;;;;;5074991;28;20020;-92
2022/05/05 00:30:32;;;;;;;4.53;4.00;;;10.30;99.90;;;;;;5093262;28;20016;-92
2022/05/05 00:32:58;;;;;;;5.80;4.50;;;10.30;99.90;;;;;;5074918;28;20362;-91
2022/05/05 00:35:23;;;;;;;4.50;3.97;;;10.30;99.90;;;;;;5093334;28;20050;-91
2022/05/05 00:37:49;;;;;;;6.05;4.28;;;10.30;99.90;;;;;;5074738;28;20021;-92
2022/05/05 00:40:22;;;;;;;6.05;4.00;;;10.30;99.90;;;;;;5075008;28;20028;-92
2022/05/05 00:42:47;;;;;;;4.82;4.18;;;10.30;99.90;;;;;;5075029;28;20027;-92
2022/05/05 00:45:13;;;;;;;5.05;4.35;;;10.30;99.90;;;;;;5096680;28;20024;-91
2022/05/05 00:47:41;;;;;;;5.75;3.95;;;10.30;99.90;;;;;;5096826;28;20054;-92
2022/05/05 00:50:07;;;;;;;4.55;3.85;;;10.20;99.90;;;;;;5078065;28;20464;-91
2022/05/05 00:52:33;;;;;;;4.63;3.97;;;10.20;99.90;;;;;;5078024;28;20031;-91
2022/05/05 00:55:01;;;;;;;4.00;3.60;;;10.30;99.90;;;;;;5078180;28;20017;-91
2022/05/05 00:57:30;;;;;;;4.80;4.22;;;10.20;99.90;;;;;;5077977;28;20028;-92
2022/05/05 01:00:02;;;;;;;4.68;4.07;;;10.30;99.90;;;;;;5078207;28;20020;-91
2022/05/05 01:02:32;;;;;;;5.13;4.40;;;10.30;99.90;;;;;;5078045;28;20051;-91
2022/05/05 01:05:00;;;;;;;5.40;4.43;;;10.20;99.90;;;;;;5096079;28;20099;-92
2022/05/05 01:07:31;;;;;;;6.47;4.35;;;10.20;99.90;;;;;;5078109;28;20472;-92
2022/05/05 01:10:40;;;;;;;4.95;4.28;;;10.20;99.90;;;;;;5078084;28;20111;-92
2022/05/05 01:13:10;;;;;;;4.73;3.90;;;10.20;99.90;;;;;;5068303;28;20036;-91
2022/05/05 01:15:43;;;;;;;5.30;4.13;;;10.20;99.90;;;;;;5077836;28;20068;-92
2022/05/05 01:18:12;;;;;;;5.05;4.00;;;10.20;99.90;;;;;;5096035;28;20093;-91
2022/05/05 01:21:10;;;;;;;5.73;3.83;;;10.20;99.90;;;;;;5077647;28;20036;-92
2022/05/05 01:23:43;;;;;;;6.00;3.90;;;10.20;99.90;;;;;;5064850;28;20032;-91
2022/05/05 01:31:44;;;;;;;4.93;4.13;;;10.20;99.90;;;;;;5082368;28;20524;-92
2022/05/05 01:34:09;;;;;;;5.38;4.00;;;10.10;99.90;;;;;;5077498;28;20028;-92
2022/05/05 01:36:35;;;;;;;4.63;4.10;;;10.10;99.90;;;;;;5077734;28;20495;-92
2022/05/05 01:39:00;;;;;;;4.97;4.47;;;10.10;99.90;;;;;;5077773;28;20030;-92
2022/05/05 01:41:26;;;;;;;5.32;4.68;;;10.00;99.90;;;;;;5077935;28;20016;-92
2022/05/05 01:43:52;;;;;;;5.77;4.10;;;10.00;99.90;;;;;;5077592;28;20033;-93
2022/05/05 01:46:17;;;;;;;6.90;4.43;;;10.00;99.90;;;;;;5077409;28;20035;-93
2022/05/05 01:48:43;;;;;;;4.82;4.22;;;9.90;99.90;;;;;;5077788;28;20024;-92
2022/05/05 01:51:08;;;;;;;5.03;4.17;;;9.90;99.90;;;;;;5077403;28;20030;-92
2022/05/05 01:53:37;;;;;;;5.38;4.50;;;9.80;99.90;;;;;;5095930;28;20032;-92
2022/05/05 01:56:08;;;;;;;6.65;4.30;;;9.80;99.90;;;;;;5075961;28;20488;-93
2022/05/05 01:58:33;;;;;;;7.00;4.47;;;9.70;99.90;;;;;;5077042;28;20044;-92
2022/05/05 02:00:59;;;;;;;7.80;4.70;;;9.70;99.90;;;;;;5077147;28;20047;-92
2022/05/05 02:03:25;;;;;;;5.90;4.72;;;9.70;99.90;;;;;;5077416;28;20059;-92
2022/05/05 02:05:50;;;;;;;5.90;4.70;;;9.70;99.90;;;;;;5077075;28;20380;-92
2022/05/05 02:08:16;;;;;;;6.80;5.20;;;9.70;99.90;;;;;;5077236;28;20020;-92
2022/05/05 02:10:41;;;;;;;5.70;4.97;;;9.60;99.90;;;;;;5076873;28;20082;-92
2022/05/05 02:13:09;;;;;;;6.83;4.50;;;9.60;99.90;;;;;;5077117;28;20020;-92
2022/05/05 02:15:34;;;;;;;6.63;5.40;;;9.60;99.90;;;;;;5076495;28;20031;-92
2022/05/05 02:18:13;;;;;;;5.27;4.77;;;9.50;99.90;;;;;;5094349;28;20016;-92
2022/05/05 02:20:39;;;;;;;6.10;5.07;;;9.50;99.90;;;;;;5086041;28;20044;-92
2022/05/05 02:23:06;;;;;;;6.33;5.10;;;9.50;99.90;;;;;;5082301;28;20020;-92
2022/05/05 02:25:32;;;;;;;5.37;4.73;;;9.40;99.90;;;;;;5078116;28;20483;-92
2022/05/05 02:27:59;;;;;;;5.23;4.73;;;9.30;99.90;;;;;;5076627;28;20024;-91
2022/05/05 02:30:27;;;;;;;5.83;5.20;;;9.30;99.90;;;;;;5077050;28;20024;-93
2022/05/05 02:32:52;;;;;;;5.60;5.00;;;9.30;99.90;;;;;;5077320;28;20020;-91
2022/05/05 02:35:21;;;;;;;8.70;5.17;;;9.20;99.90;;;;;;5076909;28;20031;-91
2022/05/05 02:40:32;;;;;;;6.80;5.43;;;9.20;99.90;;;;;;5095122;28;20035;-91
2022/05/05 02:42:58;;;;;;;6.47;5.50;;;9.20;99.90;;;;;;5076595;28;20027;-92
2022/05/05 02:45:24;;;;;;;6.03;4.93;;;9.10;99.90;;;;;;5094720;28;20016;-92
2022/05/05 02:47:53;;;;;;;7.53;5.07;;;9.10;99.90;;;;;;5076543;28;20030;-92
2022/05/05 02:50:22;;;;;;;7.10;5.30;;;9.00;99.90;;;;;;5094330;28;20073;-92
2022/05/05 02:52:55;;;;;;;7.13;5.40;;;9.00;99.90;;;;;;5076139;28;20076;-92
2022/05/05 02:55:21;;;;;;;5.87;5.27;;;9.00;99.90;;;;;;5076374;28;20480;-92
2022/05/05 02:57:51;;;;;;;5.73;5.00;;;8.90;99.90;;;;;;5076149;28;20024;-92
2022/05/05 03:00:21;;;;;;;7.23;4.87;;;8.90;99.90;;;;;;5094282;28;20023;-92
2022/05/05 03:02:51;;;;;;;8.33;5.57;;;8.90;99.90;;;;;;5075898;28;20026;-92
2022/05/05 03:05:24;;;;;;;5.27;4.67;;;8.80;99.90;;;;;;5075883;28;20126;-92
2022/05/05 03:07:53;;;;;;;6.00;5.00;;;8.80;99.90;;;;;;5075752;28;20027;-92
2022/05/05 03:10:21;;;;;;;8.03;5.53;;;8.80;99.90;;;;;;5075947;28;20103;-92
2022/05/05 03:13:30;;;;;;;6.97;5.73;;;8.70;99.90;;;;;;5093884;28;20024;-92
2022/05/05 03:16:04;;;;;;;7.57;5.67;;;8.70;99.90;;;;;;5084127;28;20036;-92
2022/05/05 03:18:32;;;;;;;7.50;5.50;;;8.60;99.90;;;;;;5093492;28;20027;-92
2022/05/05 03:21:00;;;;;;;6.53;5.60;;;8.60;99.90;;;;;;5075444;28;20059;-92
2022/05/05 03:23:33;;;;;;;7.37;5.83;;;8.60;99.90;;;;;;5093611;28;20028;-92
2022/05/05 03:26:02;;;;;;;8.43;5.80;;;8.60;99.90;;;;;;5075646;28;20039;-92
2022/05/05 03:28:30;;;;;;;7.70;6.10;;;8.60;99.90;;;;;;5075276;28;20023;-92
2022/05/05 03:31:03;;;;;;;6.90;6.10;;;8.50;99.90;;;;;;5075353;28;20077;-92
2022/05/05 03:33:32;;;;;;;8.83;7.20;;;8.60;99.90;;;;;;5075843;28;20346;-91
2022/05/05 03:36:00;;;;;;;9.67;7.17;;;8.60;99.90;;;;;;5075255;28;20028;-92
2022/05/05 03:38:44;;;;;;;15.30;7.70;;;8.60;99.90;;;;;;5075154;28;20050;-91
2022/05/05 03:41:12;;;;;;;9.97;7.90;;;8.60;99.90;;;;;;5075333;28;20044;-92
2022/05/05 03:44:02;;;;;;;9.27;6.37;;;8.60;99.90;;;;;;5075309;28;20031;-91
2022/05/05 03:46:30;;;;;;;9.83;6.93;;;8.70;99.90;;;;;;5093305;28;20028;-92
2022/05/05 03:48:56;;;;;;;15.77;11.30;;;8.70;99.90;;;;;;5075279;28;20034;-92
2022/05/05 03:51:22;;;;;;;16.57;12.67;;;8.70;99.90;;;;;;5075637;28;20027;-91
2022/05/05 03:53:47;;;;;;;14.17;9.20;;;8.70;99.90;;;;;;5075162;28;20028;-92
2022/05/05 03:56:13;;;;;;;8.07;7.17;;;8.80;99.90;;;;;;5075229;28;20035;-92
2022/05/05 03:58:41;;;;;;;7.73;6.67;;;8.80;99.90;;;;;;5075377;28;20032;-92
2022/05/05 04:01:11;;;;;;;7.30;6.60;;;8.80;99.90;;;;;;5075306;28;20024;-92
2022/05/05 04:03:43;;;;;;;8.20;6.27;;;8.90;99.90;;;;;;5074936;28;20116;-92
2022/05/05 04:06:13;;;;;;;9.13;6.63;;;8.90;99.90;;;;;;5075125;28;20035;-92
2022/05/05 04:08:41;;;;;;;8.87;6.70;;;8.90;99.90;;;;;;5074856;28;20028;-91
2022/05/05 04:11:14;;;;;;;10.67;8.43;;;8.90;99.90;;;;;;5074859;28;20032;-91
2022/05/05 04:13:43;;;;;;;7.00;6.30;;;9.00;99.90;;;;;;5074868;28;20027;-87
2022/05/05 04:16:11;;;;;;;8.17;6.30;;;9.00;99.90;;;;;;5074890;28;20415;-87
2022/05/05 04:18:37;;;;;;;11.00;7.27;;;9.00;99.90;;;;;;5077103;28;20204;-87
2022/05/05 04:21:03;;;;;;;8.77;6.93;;;9.00;99.90;;;;;;5081981;28;20033;-90
2022/05/05 04:23:29;;;;;;;9.20;7.43;;;9.00;99.90;;;;;;5091894;28;20067;-89
2022/05/05 04:25:55;;;;;;;9.33;6.80;;;9.10;99.90;;;;;;5085734;28;20085;-89
2022/05/05 04:28:21;;;;;;;8.13;6.80;;;9.10;99.90;;;;;;5060017;28;20060;-90
2022/05/05 04:30:47;;;;;;;7.90;6.30;;;9.10;99.90;;;;;;5075052;28;20117;-90
2022/05/05 04:33:13;;;;;;;7.60;6.27;;;9.20;99.90;;;;;;5085039;28;20068;-91
2022/05/05 04:35:39;;;;;;;11.00;5.70;;;9.20;99.90;;;;;;5089342;28;20055;-90
2022/05/05 04:38:05;;;;;;;8.30;6.20;;;9.20;99.90;;;;;;5074775;28;20465;-90
2022/05/05 04:40:31;;;;;;;8.43;5.97;;;9.30;99.90;;;;;;5068478;28;20031;-91
2022/05/05 04:42:57;;;;;;;8.57;6.27;;;9.30;99.90;;;;;;5096185;28;20108;-90
2022/05/05 04:45:23;;;;;;;8.47;5.47;;;9.40;99.90;;;;;;5094282;28;20119;-89
2022/05/05 04:47:48;;;;;;;8.53;6.03;;;9.40;99.90;;;;;;5075342;28;20433;-90
2022/05/05 04:50:14;;;;;;;8.43;6.13;;;9.40;99.90;;;;;;5072673;28;20445;-90
2022/05/05 04:52:40;;;;;;;7.73;5.77;;;9.50;99.90;;;;;;5087569;28;20028;-90
2022/05/05 04:55:05;;;;;;;6.73;5.33;;;9.50;99.90;;;;;;5073175;28;20035;-90
2022/05/05 04:57:31;;;;;;;8.77;5.77;;;9.60;99.90;;;;;;5092611;28;20032;-90
2022/05/05 04:59:59;;;;;;;8.47;5.10;;;9.70;99.90;;;;;;5076664;28;20433;-84
2022/05/05 05:02:24;;;;;;;7.87;5.30;;;9.70;99.90;;;;;;5075984;28;20028;-85
2022/05/05 05:04:52;;;;;;;8.13;5.40;;;9.70;99.90;;;;;;5075586;28;20082;-83
2022/05/05 05:07:20;;;;;;;6.33;5.20;;;9.80;99.90;;;;;;5094890;28;20032;-84
2022/05/05 05:09:45;;;;;;;6.53;4.70;;;9.80;99.90;;;;;;5085088;28;20035;-82
2022/05/05 05:12:11;;;;;;;10.70;5.30;;;9.90;99.90;;;;;;5093703;28;20024;-82
2022/05/05 05:14:36;;;;;;;9.47;6.57;;;9.90;99.90;;;;;;5059876;28;20029;-83
2022/05/05 05:17:02;;;;;;;12.35;7.18;;;10.00;99.90;;;;;;5086665;28;20032;-82
2022/05/05 05:19:30;;;;;;;7.47;5.75;;;10.00;99.90;;;;;;5095864;28;20496;-82
2022/05/05 05:21:58;;;;;;;8.00;5.68;;;10.10;99.90;;;;;;5095864;28;20031;-82
2022/05/05 05:24:24;;;;;;;6.45;5.53;;;10.20;99.90;;;;;;5095461;28;20028;-83
2022/05/05 05:26:51;;;;;;;7.57;4.97;;;10.20;99.90;;;;;;5094338;28;20027;-83
2022/05/05 05:29:17;;;;;;;7.00;4.78;;;10.30;99.90;;;;;;5095709;28;20020;-82
2022/05/05 05:31:42;;;;;;;6.05;4.80;;;10.40;99.90;;;;;;5095674;28;20023;-83
2022/05/05 05:34:08;;;;;;;6.47;4.88;;;10.60;99.90;;;;;;5095499;28;20032;-83
2022/05/05 05:36:34;;;;;;;5.85;4.78;;;10.70;99.90;;;;;;5094203;28;20115;-83
2022/05/05 05:38:59;;;;;;;4.85;4.35;;;10.70;99.90;;;;;;5095412;28;20108;-82
2022/05/05 05:41:25;;;;;;;6.50;4.13;;;10.80;99.90;;;;;;5094135;28;20107;-83
2022/05/05 05:43:52;;;;;;;6.15;3.70;;;11.00;99.90;;;;;;5095602;28;20132;-82
2022/05/05 05:46:18;;;;;;;7.55;4.70;;;11.10;99.90;;;;;;5095397;28;20097;-83
2022/05/05 05:48:44;;;;;;;5.85;4.90;;;11.30;99.90;;;;;;5094869;28;20040;-83
2022/05/05 05:51:10;;;;;;;6.38;4.68;;;11.40;99.90;;;;;;5095102;28;20035;-83
2022/05/05 05:53:36;;;;;;;8.18;4.47;;;11.50;99.90;;;;;;5076842;28;20110;-82
2022/05/05 05:56:02;;;;;;;10.18;5.30;;;11.60;99.90;;;;;;5094923;28;20381;-83
2022/05/05 05:58:28;;;;;;;6.22;4.80;;;11.70;99.90;;;;;;5094981;28;20031;-82
2022/05/05 06:00:55;;;;;;;9.77;4.50;;;11.80;99.90;;;;;;5095202;28;20024;-82
2022/05/05 06:06:06;;;;;;;8.63;4.90;;;12.10;99.90;;;;;;5094895;28;20097;-83
2022/05/05 06:08:33;;;;;;;5.82;5.00;;;12.20;99.90;;;;;;5094743;28;20024;-83
2022/05/05 06:11:00;;;;;;;6.35;5.20;;;12.30;99.90;;;;;;5094725;28;20017;-83
2022/05/05 06:13:27;;;;;;;7.43;5.72;;;12.60;99.90;;;;;;5094714;28;20025;-84
2022/05/05 06:15:54;;;;;;;11.02;5.90;;;12.70;99.90;;;;;;5094633;28;20030;-83
2022/05/05 06:18:22;;;;;;;9.00;6.25;;;12.90;99.90;;;;;;5094601;28;20023;-83
2022/05/05 06:20:49;;;;;;;9.35;6.90;;;13.00;99.90;;;;;;5076360;28;20381;-84
2022/05/05 06:23:16;;;;;;;7.43;6.28;;;13.20;99.90;;;;;;5076529;28;20456;-83
2022/05/05 06:25:43;;;;;;;6.72;5.97;;;13.30;99.90;;;;;;5094634;28;20377;-83
2022/05/05 06:28:08;;;;;;;7.18;5.95;;;13.50;99.90;;;;;;5094460;28;20020;-83
2022/05/05 06:30:34;;;;;;;8.10;6.50;;;13.50;99.90;;;;;;5094552;28;20145;-83
2022/05/05 06:32:59;;;;;;;8.70;6.90;;;13.40;99.90;;;;;;5094507;28;20028;-83
2022/05/05 06:35:25;;;;;;;8.82;6.18;;;13.40;99.90;;;;;;5094143;28;20130;-84
2022/05/05 06:37:51;;;;;;;7.55;6.40;;;13.40;99.90;;;;;;5094407;28;20031;-84
2022/05/05 06:40:17;;;;;;;10.20;6.85;;;13.20;99.90;;;;;;5076148;28;20016;-84
2022/05/05 06:42:43;;;;;;;10.18;7.10;;;13.20;99.90;;;;;;5093700;28;20047;-83
2022/05/05 06:45:09;;;;;;;8.68;6.60;;;13.10;99.90;;;;;;5094548;28;20028;-83
2022/05/05 06:47:35;;;;;;;7.80;6.47;;;13.00;99.90;;;;;;5094092;28;20028;-83
2022/05/05 06:50:00;;;;;;;8.57;7.25;;;13.00;99.90;;;;;;5094310;28;20043;-84
2022/05/05 06:52:26;;;;;;;9.48;7.20;;;13.10;99.90;;;;;;5094214;28;20031;-84
2022/05/05 06:54:52;;;;;;;10.18;7.65;;;13.30;99.90;;;;;;5094036;28;20043;-84
2022/05/05 06:57:17;;;;;;;8.27;7.05;;;13.40;99.90;;;;;;5094023;28;20028;-83
2022/05/05 06:59:43;;;;;;;9.48;6.78;;;13.40;99.90;;;;;;5094048;28;20012;-83
2022/05/05 07:02:12;;;;;;;9.07;7.47;;;13.40;99.90;;;;;;5075515;28;20027;-83
2022/05/05 07:07:24;;;;;;;9.93;7.85;;;13.50;99.90;;;;;;5094076;28;20039;-84
2022/05/05 07:12:38;;;;;;;10.00;8.30;;;13.70;99.90;;;;;;5093870;28;20031;-83
2022/05/05 07:15:05;;;;;;;11.00;7.90;;;13.80;99.90;;;;;;5075542;28;20081;-83
2022/05/05 07:17:30;;;;;;;9.15;7.95;;;13.90;99.90;;;;;;5093686;28;20376;-83
2022/05/05 07:20:06;;;;;;;8.45;7.60;;;14.00;99.90;;;;;;5094002;28;20130;-83
2022/05/05 07:22:32;;;;;;;12.63;8.32;;;14.00;99.90;;;;;;5075595;28;20368;-83
2022/05/05 07:24:59;;;;;;;9.32;8.07;;;14.00;99.90;;;;;;5093612;28;20081;-84
2022/05/05 07:27:25;;;;;;;9.07;7.63;;;14.20;99.90;;;;;;5093747;28;20081;-83
2022/05/05 07:29:51;;;;;;;11.30;8.10;;;14.30;99.90;;;;;;5093555;28;20068;-83
2022/05/05 07:32:24;;;;;;;10.15;7.50;;;14.30;99.90;;;;;;5093562;28;20028;-83
2022/05/05 07:34:52;;;;;;;9.05;7.63;;;14.40;99.90;;;;;;5093466;28;20032;-83
2022/05/05 07:37:20;;;;;;;8.65;7.75;;;14.50;99.90;;;;;;5093713;28;20058;-83
2022/05/05 07:39:54;;;;;;;9.85;7.82;;;14.60;99.90;;;;;;5077570;28;20461;-83
2022/05/05 07:42:22;;;;;;;9.00;7.53;;;14.70;99.90;;;;;;5093219;28;20035;-84
2022/05/05 07:45:11;;;;;;;12.75;8.23;;;14.90;99.90;;;;;;5091090;28;20381;-83
2022/05/05 07:48:01;;;;;;;8.73;7.03;;;15.00;99.90;;;;;;5072534;28;20028;-83
2022/05/05 07:50:53;;;;;;;8.07;6.90;;;15.30;99.90;;;;;;5089701;28;20051;-84
2022/05/05 07:53:21;;;;;;;8.68;6.70;;;15.50;99.90;;;;;;5069927;28;20033;-88
2022/05/05 07:55:49;;;;;;;8.30;7.35;;;15.70;99.90;;;;;;5089294;28;20508;-88
2022/05/05 07:58:15;;;;;;;9.00;7.40;;;15.90;99.90;;;;;;5094430;28;20468;-88
2022/05/05 08:00:42;;;;;;;10.35;7.53;;;16.00;99.90;;;;;;5095230;28;20024;-88
2022/05/05 08:03:13;;;;;;;9.90;7.65;;;16.10;99.90;;;;;;5091840;28;20111;-88
2022/05/05 08:05:41;;;;;;;7.65;6.85;;;16.00;99.90;;;;;;5081425;28;20024;-89
2022/05/05 08:08:11;;;;;;;8.95;6.93;;;16.20;99.90;;;;;;5093612;28;20027;-86
2022/05/05 08:10:42;;;;;;;9.63;7.47;;;16.20;99.90;;;;;;5093758;28;20058;-86
2022/05/05 08:13:11;;;;;;;10.27;7.75;;;16.30;99.90;;;;;;5095149;28;20461;-87
2022/05/05 08:15:51;;;;;;;12.35;7.93;;;16.40;99.90;;;;;;5095940;28;20766;-86
2022/05/05 08:18:38;;;;;;;10.38;7.95;;;16.40;99.90;;;;;;5096047;28;20047;-86
2022/05/05 08:21:09;;;;;;;8.55;7.65;;;16.50;99.90;;;;;;5095565;28;20063;-87
2022/05/05 08:23:34;;;;;;;11.20;8.00;;;16.40;99.90;;;;;;5078937;28;20467;-86
2022/05/05 08:28:47;;;;;;;8.75;7.72;;;16.40;99.90;;;;;;5095779;28;20039;-86
2022/05/05 08:31:13;;;;;;;9.80;6.70;;;16.50;99.90;;;;;;5095430;28;20032;-84
2022/05/05 08:33:41;;;;;;;10.20;7.45;;;16.70;99.90;;;;;;5097089;28;20032;-84
2022/05/05 08:36:07;;;;;;;8.13;7.30;;;16.70;99.90;;;;;;5078394;28;20028;-84
2022/05/05 08:38:33;;;;;;;9.23;7.72;;;16.80;99.90;;;;;;5081005;28;20040;-84
2022/05/05 08:40:59;;;;;;;9.80;7.85;;;16.90;99.90;;;;;;5074725;28;20377;-84
2022/05/05 08:43:25;;;;;;;9.90;7.47;;;17.00;99.90;;;;;;5076330;28;20052;-84
2022/05/05 08:45:53;;;;;;;12.75;7.88;;;16.90;99.90;;;;;;5078249;28;20024;-84
2022/05/05 08:48:22;;;;;;;8.20;7.35;;;17.00;99.90;;;;;;5095805;28;20060;-84
2022/05/05 08:50:55;;;;;;;9.20;7.82;;;17.00;99.90;;;;;;5070719;28;20034;-84
2022/05/05 08:53:25;;;;;;;8.90;7.45;;;17.20;99.90;;;;;;5095977;28;20489;-84
2022/05/05 08:55:50;;;;;;;9.45;6.63;;;17.20;99.90;;;;;;5095432;28;20151;-85
2022/05/05 08:58:17;;;;;;;9.07;6.45;;;17.30;99.90;;;;;;5095428;28;20101;-85
2022/05/05 09:00:43;;;;;;;7.88;5.45;;;17.40;99.90;;;;;;5095920;28;20028;-85
2022/05/05 09:03:10;;;;;;;7.18;5.38;;;17.60;99.90;;;;;;5095706;28;20026;-85
2022/05/05 09:05:45;;;;;;;7.97;5.60;;;17.90;99.90;;;;;;5077418;28;20020;-85
2022/05/05 09:08:12;;;;;;;6.63;5.45;;;18.00;99.90;;;;;;5095921;28;20019;-85
2022/05/05 09:10:45;;;;;;;7.10;5.22;;;18.00;99.90;;;;;;5095772;28;20070;-85
2022/05/05 09:13:11;;;;;;;7.22;5.55;;;18.10;99.90;;;;;;5096458;28;20403;-85
2022/05/05 09:15:40;;;;;;;6.93;5.70;;;18.30;99.90;;;;;;5091378;28;20473;-85
2022/05/05 09:18:35;;;;;;;7.63;6.03;;;18.40;99.90;;;;;;5078864;28;20016;-85
2022/05/05 09:21:04;;;;;;;8.98;6.07;;;18.30;99.90;;;;;;5076624;28;20556;-87
2022/05/05 09:24:34;;;;;;;13.43;6.97;;;18.40;99.90;;;;;;5076945;28;20024;-84
2022/05/05 09:26:35;;;;;;;6.97;5.88;;;18.60;99.90;;;;;;5075568;28;20040;-81
2022/05/05 09:29:18;;;;;;;7.78;5.72;;;18.80;99.90;;;;;;5077680;28;20021;-81
2022/05/05 09:31:44;;;;;;;7.28;5.93;;;18.90;99.90;;;;;;5095946;28;20024;-84
2022/05/05 09:34:18;;;;;;;7.53;5.90;;;19.10;99.90;;;;;;5077220;28;20388;-84
2022/05/05 09:36:43;;;;;;;9.15;5.57;;;19.20;99.90;;;;;;5095567;28;20111;-84
2022/05/05 09:39:10;;;;;;;8.20;5.85;;;19.30;99.90;;;;;;5095876;28;20067;-87
2022/05/05 09:41:44;;;;;;;7.30;5.90;;;19.50;99.90;;;;;;5094985;28;20020;-88
2022/05/05 09:44:20;;;;;;;7.63;6.15;;;19.70;99.90;;;;;;5094940;28;20684;-87
2022/05/05 09:46:46;;;;;;;7.00;6.25;;;20.00;99.90;;;;;;5076735;28;20127;-87
2022/05/05 09:49:21;;;;;;;8.40;6.32;;;19.90;99.90;;;;;;5093551;28;20064;-87
2022/05/05 09:57:41;;;;;;;6.65;5.93;;;20.10;99.90;;;;;;5094587;28;20071;-88
2022/05/05 10:00:31;;;;;;;6.05;5.45;;;20.30;99.90;;;;;;5094141;28;20020;-86
2022/05/05 10:05:51;;;;;;;7.10;5.32;;;20.30;99.90;;;;;;5074681;28;20031;-88
2022/05/05 10:08:23;;;;;;;7.25;5.97;;;20.30;99.90;;;;;;5078879;28;20483;-88
2022/05/05 10:10:49;;;;;;;6.93;4.95;;;20.20;99.90;;;;;;5094335;28;20074;-87
2022/05/05 10:13:20;;;;;;;7.30;6.22;;;20.60;99.90;;;;;;5094181;28;20767;-87
2022/05/05 10:15:48;;;;;;;9.55;5.80;;;20.70;99.90;;;;;;5075755;28;20472;-87
2022/05/05 10:18:15;;;;;;;11.10;6.13;;;20.80;99.90;;;;;;5076269;28;20031;-87
2022/05/05 10:20:45;;;;;;;9.38;7.97;;;20.70;99.90;;;;;;5094200;28;20043;-87
2022/05/05 10:23:21;;;;;;;11.60;5.68;;;20.60;99.90;;;;;;5094073;28;20066;-87
2022/05/05 10:25:52;;;;;;;6.60;4.80;;;20.50;99.90;;;;;;5074072;28;20031;-87
2022/05/05 10:28:40;;;;;;;5.53;4.93;;;20.70;99.90;;;;;;5093535;28;20020;-83
2022/05/05 10:31:37;;;;;;;6.40;4.97;;;21.00;99.90;;;;;;5094266;28;20033;-83
2022/05/05 10:34:07;;;;;;;5.90;5.22;;;21.20;99.90;;;;;;5083371;28;20038;-82
2022/05/05 10:36:34;;;;;;;7.72;5.32;;;21.30;99.90;;;;;;5095270;28;20333;-81
2022/05/05 10:39:19;;;;;;;6.13;5.10;;;21.30;99.90;;;;;;5095635;28;20024;-82
2022/05/05 10:41:45;;;;;;;;;;;21.20;99.90;;;;;;5095785;28;20020;-82
2022/05/05 10:44:19;;;;;;;5.00;4.32;;;21.00;99.90;;;;;;5095123;28;20401;-82
2022/05/05 10:46:58;;;;;;;4.75;4.10;;;20.70;99.90;;;;;;5093594;28;20027;-82
2022/05/05 10:49:32;;;;;;;5.82;4.43;;;20.60;99.90;;;;;;5094504;28;20024;-83
2022/05/05 10:52:10;;;;;;;;;;;20.70;99.90;;;;;;5094093;28;20049;-82
2022/05/05 10:54:37;;;;;;;5.57;4.55;;;20.90;99.90;;;;;;5094268;28;20324;-83
2022/05/05 10:57:45;;;;;;;4.70;3.75;;;21.30;99.90;;;;;;5093621;28;20678;-85
2022/05/05 11:00:18;;;;;;;4.57;4.13;;;21.70;99.90;;;;;;5073765;28;20030;-85
2022/05/05 11:03:01;;;;;;;5.35;3.90;;;21.90;99.90;;;;;;5073859;28;20112;-85
2022/05/05 11:05:31;;;;;;;4.50;3.35;;;21.70;99.90;;;;;;5073534;28;20386;-84
2022/05/05 11:08:09;;;;;;;5.28;3.95;;;21.50;99.90;;;;;;5072701;28;20079;-87
2022/05/05 11:10:40;;;;;;;6.93;3.53;;;21.30;99.90;;;;;;5086940;28;20051;-86
2022/05/05 11:13:14;;;;;;;6.25;3.47;;;21.60;99.90;;;;;;5074274;28;20364;-86
2022/05/05 11:21:31;;;;;;;4.80;3.72;;;22.60;99.90;;;;;;5093119;28;20066;-86
2022/05/05 11:21:50;;;;;;;5.82;3.38;;;22.80;99.90;;;;;;5092955;28;20135;-87
2022/05/05 11:24:27;;;;;;;6.10;3.30;;;22.40;98.30;;;;;;5093397;28;20052;-86
2022/05/05 11:26:52;;;;;;;4.75;3.50;;;22.00;99.90;;;;;;5074887;28;20028;-85
2022/05/05 11:29:20;;;;;;;4.97;3.95;;;21.80;99.90;;;;;;5093201;28;20027;-87
2022/05/05 11:31:57;;;;;;;5.00;3.97;;;21.30;99.90;;;;;;5093733;28;20028;-87
2022/05/05 11:34:33;;;;;;;5.63;3.63;;;20.80;99.90;;;;;;5093181;28;20027;-87
2022/05/05 11:37:00;;;;;;;5.03;3.38;;;20.60;99.90;;;;;;5092963;28;20031;-88
2022/05/05 11:39:27;;;;;;;5.55;3.70;;;20.60;99.90;;;;;;5091752;28;20024;-87
2022/05/05 11:42:00;;;;;;;3.97;2.53;;;20.80;99.90;;;;;;5092818;28;20050;-82
2022/05/05 11:44:27;;;;;;;6.88;4.40;;;21.10;99.90;;;;;;5092651;28;20472;-84
2022/05/05 11:46:54;;;;;;;7.32;3.65;;;21.50;99.90;;;;;;5093332;28;20028;-86
2022/05/05 11:49:20;;;;;;;7.43;3.95;;;21.90;99.90;;;;;;5093238;28;20039;-87
2022/05/05 11:51:46;;;;;;;4.40;3.70;;;22.40;99.90;;;;;;5093035;28;20019;-82
2022/05/05 11:54:16;;;;;;;4.47;3.10;;;22.70;99.90;;;;;;5079832;28;20111;-89
2022/05/05 11:56:44;;;;;;;4.03;2.92;;;23.20;99.90;;;;;;5091440;28;20143;-90
2022/05/05 12:02:08;;;;;;;5.25;2.65;;;24.10;99.10;;;;;;5093048;28;20418;-87
2022/05/05 12:04:36;;;;;;;6.45;3.30;;;24.00;97.30;;;;;;5092432;28;20386;-85
2022/05/05 12:07:03;;;;;;;5.22;3.67;;;24.10;96.00;;;;;;5092629;28;20031;-85
2022/05/05 12:09:28;;;;;;;7.25;4.40;;;23.70;96.30;;;;;;5092509;28;20116;-85
2022/05/05 12:11:54;;;;;;;5.65;3.65;;;23.00;96.80;;;;;;5074430;28;20502;-88
2022/05/05 12:14:22;;;;;;;4.75;3.38;;;22.50;98.10;;;;;;5086552;28;20036;-75
2022/05/05 12:16:51;;;;;;;5.82;4.10;;;22.10;99.60;;;;;;5086542;28;20028;-78
2022/05/05 12:19:18;;;;;;;5.95;3.58;;;21.80;99.00;;;;;;5083278;28;20173;-78
2022/05/05 12:21:54;;;;;;;7.40;4.57;;;21.50;98.40;;;;;;5056556;28;20058;-79
2022/05/05 12:24:22;;;;;;;7.25;4.57;;;21.20;98.40;;;;;;5090426;28;20025;-78
2022/05/05 12:26:49;;;;;;;4.60;3.80;;;20.90;98.40;;;;;;5072937;28;20426;-78
2022/05/05 12:29:18;;;;;;;6.32;4.25;;;20.60;99.90;;;;;;5055363;28;20029;-78
2022/05/05 12:31:53;;;;;;;5.60;3.97;;;20.80;99.90;;;;;;5073143;28;20480;-75
2022/05/05 12:34:25;;;;;;;5.10;3.30;;;21.30;99.90;;;;;;5075693;28;20463;-76
2022/05/05 12:37:08;;;;;;;4.60;3.30;;;21.80;99.90;;;;;;5090313;28;20566;-76
2022/05/05 12:39:34;;;;;;;5.82;4.32;;;22.40;98.10;;;;;;5085001;28;20043;-76
2022/05/05 12:42:00;;;;;;;5.75;4.70;;;22.50;99.00;;;;;;5091651;28;20484;-78
2022/05/05 12:44:31;;;;;;;12.27;7.75;;;22.50;97.60;;;;;;5088913;28;20386;-78
2022/05/05 12:47:04;;;;;;;4.85;3.60;;;22.70;96.70;;;;;;5089769;28;20068;-79
2022/05/05 12:49:36;;;;;;;6.03;3.80;;;22.70;96.90;;;;;;5088005;28;20020;-76
2022/05/05 12:52:04;;;;;;;5.53;3.90;;;22.90;97.00;;;;;;5087937;28;20056;-78
2022/05/05 12:59:57;;;;;;;5.20;3.00;;;23.20;93.50;;;;;;5086031;28;20157;-80
2022/05/05 13:02:24;;;;;;;3.72;3.15;;;23.20;93.90;;;;;;5084877;28;20039;-75
2022/05/05 13:04:49;;;;;;;6.22;3.20;;;23.40;93.70;;;;;;5083632;28;20024;-76
2022/05/05 13:07:15;;;;;;;4.03;3.20;;;23.40;94.60;;;;;;5083420;28;20378;-77
2022/05/05 13:09:41;;;;;;;4.55;3.42;;;23.40;93.70;;;;;;5084551;28;20170;-77
2022/05/05 13:12:07;;;;;;;7.28;3.55;;;23.00;94.60;;;;;;5086383;28;20025;-76
2022/05/05 13:14:32;;;;;;;6.93;3.78;;;22.60;94.60;;;;;;5088519;28;20397;-77
2022/05/05 13:16:59;;;;;;;5.82;4.20;;;22.40;95.30;;;;;;5088097;28;20039;-75
2022/05/05 13:19:25;;;;;;;4.22;3.60;;;22.00;95.00;;;;;;5068797;28;20498;-76
2022/05/05 13:21:51;;;;;;;3.92;3.38;;;21.80;94.80;;;;;;5083091;28;20036;-76
2022/05/05 13:24:17;;;;;;;4.85;3.40;;;21.60;97.10;;;;;;5063058;28;20147;-76
2022/05/05 13:26:45;;;;;;;5.13;3.40;;;21.50;96.80;;;;;;5088222;28;20111;-78
2022/05/05 13:29:11;;;;;;;4.97;3.60;;;21.50;97.90;;;;;;5088696;28;20023;-78
2022/05/05 13:31:37;;;;;;;5.18;3.90;;;21.40;98.10;;;;;;5088649;28;20534;-77
2022/05/05 13:34:03;;;;;;;4.68;3.70;;;21.30;96.50;;;;;;5087902;28;20118;-78
2022/05/05 13:36:28;;;;;;;7.50;3.70;;;21.10;97.90;;;;;;5088024;28;20099;-78
2022/05/05 13:38:55;;;;;;;4.78;3.40;;;21.00;97.40;;;;;;5088579;28;20714;-78
2022/05/05 13:41:21;;;;;;;4.15;3.03;;;21.10;97.90;;;;;;5088436;28;20016;-78
2022/05/05 13:43:47;;;;;;;5.45;3.55;;;21.10;99.70;;;;;;5084748;28;20056;-78
2022/05/05 13:46:13;;;;;;;4.60;3.65;;;21.00;99.10;;;;;;5080836;28;20059;-78
2022/05/05 13:48:38;;;;;;;4.28;3.47;;;20.90;99.90;;;;;;5083633;28;20024;-78